Aviation Digital Data Service (ADDS)

Output produced by TAFs form (1455 UTC 26 November 2014)
found at http://www.aviationweather.gov/adds/tafs/
 
KAPA 261353Z 12005KT 10SM OVC020 M03/M06 A3020 RMK AO2 SLP247 T10331061
KAPA 261300Z 2613/2712 14005KT P6SM VCSH SCT009 OVC020 
     FM261500 14007KT P6SM SCT015 SCT060 
     FM261800 33007KT P6SM FEW060 SCT110 
     FM270100 24006KT P6SM FEW140 
     FM270300 21009KT P6SM FEW200